UHHH/KHV METAR and TAF weather

Enter ICAO airport designator
Station Type Date Time Source
UHHH METAR 2020/01/26 00:30 UTC NOAA

UHHH 260030Z 24008MPS CAVOK M16/M24 Q1025 R23L/090060 NOSIG RMK QFE762/1016


Station Type Date Time Source
UHHH Decoded METAR 2020/01/26 00:30 UTC NOAA

Habarovsk, Russia (UHHH) 48-31N 135-10E 76M
Jan 25, 2020 - 07:30 PM EST / 2020.01.26 0030 UTC
Wind: from the WSW (240 degrees) at 18 MPH (16 KT):0
Visibility: greater than 7 mile(s):0
Temperature: 3 F (-16 C)
Windchill: -16 F (-27 C):2
Dew Point: -11 F (-24 C)
Relative Humidity: 50%
Pressure (altimeter): 30.27 in. Hg (1025 hPa)
ob: UHHH 260030Z 24008MPS CAVOK M16/M24 Q1025 R23L/090060 NOSIG RMK QFE762/1016
cycle: 0

Station Type Date Time Source
UHHH TAF 2020/01/25 21:23 UTC NOAA

TAF UHHH 251954Z 2521/2703 20003MPS CAVOK
TEMPO 2521/2524 24008MPS
FM260000 24009MPS 9999 SCT025
TEMPO 2600/2612 25010G15MPS

Example: see airport list